createdAt,value
2023-03-28T00:01:10.024Z,3.47
2023-03-28T00:03:39.786Z,3.95
2023-03-28T00:08:39.475Z,4.72
2023-03-28T00:11:19.656Z,4.28
2023-03-28T00:13:48.610Z,5.65
2023-03-28T00:16:15.237Z,3.30
2023-03-28T00:18:42.943Z,4.28
2023-03-28T00:21:25.090Z,9.10
2023-03-28T00:23:57.256Z,8.70
2023-03-28T00:26:26.575Z,5.15
2023-03-28T00:28:53.453Z,6.93
2023-03-28T00:31:20.758Z,4.40
2023-03-28T00:33:47.793Z,4.65
2023-03-28T00:36:18.468Z,5.38
2023-03-28T00:38:46.105Z,5.60
2023-03-28T00:41:15.997Z,5.57
2023-03-28T00:43:45.404Z,4.18
2023-03-28T00:46:22.500Z,5.15
2023-03-28T00:48:53.561Z,6.18
2023-03-28T00:51:25.969Z,4.68
2023-03-28T00:53:58.076Z,8.68
2023-03-28T00:56:29.743Z,6.93
2023-03-28T00:58:57.489Z,4.68
2023-03-28T01:01:24.016Z,5.03
2023-03-28T01:04:02.299Z,6.35
2023-03-28T01:06:34.622Z,5.50
2023-03-28T01:09:04.795Z,7.10
2023-03-28T01:11:32.794Z,5.25
2023-03-28T01:14:02.232Z,5.65
2023-03-28T01:16:30.862Z,4.97
2023-03-28T01:19:02.662Z,7.25
2023-03-28T01:21:48.463Z,5.75
2023-03-28T01:24:23.880Z,6.68
2023-03-28T01:27:03.872Z,8.15
2023-03-28T01:29:49.070Z,5.63
2023-03-28T01:32:38.755Z,10.82
2023-03-28T01:35:24.485Z,5.10
2023-03-28T01:38:09.253Z,5.80
2023-03-28T01:41:08.252Z,6.40
2023-03-28T01:43:59.415Z,8.88
2023-03-28T01:46:33.587Z,7.15
2023-03-28T01:49:10.348Z,5.57
2023-03-28T01:52:05.143Z,6.20
2023-03-28T01:55:05.728Z,5.75
2023-03-28T01:58:05.431Z,5.78
2023-03-28T02:00:36.332Z,4.97
2023-03-28T02:03:11.597Z,6.70
2023-03-28T02:05:41.049Z,6.20
2023-03-28T02:08:11.392Z,5.75
2023-03-28T02:10:41.999Z,5.43
2023-03-28T02:13:15.898Z,7.47
2023-03-28T02:15:45.748Z,5.80
2023-03-28T02:18:23.674Z,5.82
2023-03-28T02:20:55.409Z,7.07
2023-03-28T02:23:26.991Z,5.07
2023-03-28T02:25:53.702Z,5.85
2023-03-28T02:28:21.878Z,5.60
2023-03-28T02:30:48.832Z,7.07
2023-03-28T02:33:40.649Z,7.35
2023-03-28T02:36:29.196Z,6.68
2023-03-28T02:39:20.852Z,6.63
2023-03-28T02:42:09.188Z,7.30
2023-03-28T02:45:13.251Z,6.53
2023-03-28T02:48:17.545Z,6.70
2023-03-28T02:51:04.157Z,6.70
2023-03-28T02:53:34.381Z,6.55
2023-03-28T02:56:22.513Z,6.38
2023-03-28T02:58:54.917Z,6.15
2023-03-28T03:01:25.487Z,6.05
2023-03-28T03:03:52.766Z,5.78
2023-03-28T03:06:19.513Z,6.43
2023-03-28T03:08:46.324Z,4.63
2023-03-28T03:11:13.004Z,6.05
2023-03-28T03:13:39.546Z,10.05
2023-03-28T03:16:06.464Z,5.25
2023-03-28T03:18:34.865Z,6.00
2023-03-28T03:21:01.790Z,7.43
2023-03-28T03:23:28.946Z,7.60
2023-03-28T03:25:55.459Z,5.72
2023-03-28T03:28:21.949Z,7.35
2023-03-28T03:30:48.414Z,6.25
2023-03-28T03:33:16.656Z,7.78
2023-03-28T03:35:45.916Z,8.30
2023-03-28T03:38:13.520Z,7.13
2023-03-28T03:40:40.624Z,8.48
2023-03-28T03:43:07.323Z,6.75
2023-03-28T03:45:33.835Z,7.57
2023-03-28T03:48:00.444Z,8.35
2023-03-28T03:50:27.033Z,8.10
2023-03-28T03:52:53.598Z,8.18
2023-03-28T03:55:20.931Z,7.38
2023-03-28T03:57:47.547Z,8.50
2023-03-28T04:00:14.660Z,12.85
2023-03-28T04:02:41.336Z,6.80
2023-03-28T04:05:08.673Z,8.05
2023-03-28T04:07:35.712Z,8.95
2023-03-28T04:10:02.478Z,7.72
2023-03-28T04:12:29.034Z,7.88
2023-03-28T04:14:55.752Z,9.68
2023-03-28T04:17:23.412Z,12.38
2023-03-28T04:19:50.028Z,9.52
2023-03-28T04:22:18.310Z,8.27
2023-03-28T04:24:44.966Z,7.88
2023-03-28T04:27:12.083Z,7.05
2023-03-28T04:29:39.301Z,7.68
2023-03-28T04:32:06.605Z,7.65
2023-03-28T04:34:33.943Z,8.43
2023-03-28T04:37:02.346Z,7.80
2023-03-28T04:39:35.629Z,7.95
2023-03-28T04:42:05.179Z,7.20
2023-03-28T04:44:31.926Z,8.77
2023-03-28T04:46:58.749Z,18.95
2023-03-28T04:49:25.791Z,12.98
2023-03-28T04:51:52.683Z,12.02
2023-03-28T04:54:19.849Z,8.20
2023-03-28T04:56:50.263Z,9.25
2023-03-28T04:59:17.661Z,13.00
2023-03-28T05:01:49.301Z,10.52
2023-03-28T05:04:17.738Z,10.15
2023-03-28T05:06:46.500Z,10.32
2023-03-28T05:09:14.373Z,12.38
2023-03-28T05:11:41.152Z,13.15
2023-03-28T05:14:07.665Z,13.80
2023-03-28T05:16:34.574Z,9.75
2023-03-28T05:19:01.650Z,10.70
2023-03-28T05:21:28.668Z,10.98
2023-03-28T05:23:55.584Z,14.25
2023-03-28T05:26:22.149Z,15.98
2023-03-28T05:28:48.969Z,11.52
2023-03-28T05:31:17.342Z,9.63
2023-03-28T05:33:43.980Z,11.25
2023-03-28T05:36:10.741Z,12.93
2023-03-28T05:38:37.388Z,9.98
2023-03-28T05:41:04.030Z,15.32
2023-03-28T05:43:30.646Z,12.73
2023-03-28T05:45:57.203Z,12.10
2023-03-28T05:48:23.814Z,12.65
2023-03-28T05:50:51.035Z,13.23
2023-03-28T05:53:17.644Z,15.80
2023-03-28T05:55:44.287Z,9.32
2023-03-28T05:58:10.828Z,12.57
2023-03-28T06:00:37.623Z,12.27
2023-03-28T06:03:06.150Z,12.82
2023-03-28T06:05:33.014Z,10.57
2023-03-28T06:07:59.577Z,15.85
2023-03-28T06:10:26.494Z,16.48
2023-03-28T06:12:53.003Z,17.17
2023-03-28T06:15:19.520Z,10.63
2023-03-28T06:17:46.177Z,12.73
2023-03-28T06:20:13.320Z,9.23
2023-03-28T06:22:40.021Z,13.57
2023-03-28T06:25:07.359Z,9.25
2023-03-28T06:27:34.649Z,7.10
2023-03-28T06:30:01.432Z,6.55
2023-03-28T06:32:28.556Z,10.10
2023-03-28T06:34:55.112Z,6.78
2023-03-28T06:37:21.601Z,8.85
2023-03-28T06:39:50.745Z,7.57
2023-03-28T06:42:17.475Z,6.03
2023-03-28T06:44:43.975Z,8.45
2023-03-28T06:47:10.534Z,7.93
2023-03-28T06:49:37.052Z,6.25
2023-03-28T06:52:03.605Z,5.13
2023-03-28T06:54:30.085Z,7.68
2023-03-28T06:56:56.616Z,6.32
2023-03-28T06:59:23.185Z,8.18
2023-03-28T07:01:49.732Z,7.22
2023-03-28T07:04:16.296Z,9.15
2023-03-28T07:06:42.857Z,7.10
2023-03-28T07:09:09.413Z,7.15
2023-03-28T07:11:35.987Z,10.48
2023-03-28T07:14:02.520Z,7.50
2023-03-28T07:16:29.030Z,6.82
2023-03-28T07:18:55.914Z,6.30
2023-03-28T07:21:22.704Z,6.30
2023-03-28T07:23:49.289Z,6.13
2023-03-28T07:26:16.586Z,6.97
2023-03-28T07:28:43.477Z,5.88
2023-03-28T07:31:10.468Z,6.82
2023-03-28T07:33:38.466Z,5.97
2023-03-28T07:36:09.682Z,7.30
2023-03-28T07:38:36.756Z,7.43
2023-03-28T07:41:03.745Z,8.70
2023-03-28T07:43:30.455Z,6.10
2023-03-28T07:46:06.396Z,4.60
2023-03-28T07:48:34.948Z,4.88
2023-03-28T07:51:02.202Z,6.28
2023-03-28T07:53:28.893Z,6.72
2023-03-28T07:55:56.269Z,4.93
2023-03-28T07:58:23.775Z,4.68
2023-03-28T08:00:50.657Z,4.10
2023-03-28T08:03:18.770Z,4.00
2023-03-28T08:05:49.771Z,5.28
2023-03-28T08:08:16.608Z,5.38
2023-03-28T08:10:46.065Z,3.85
2023-03-28T08:13:12.778Z,5.18
2023-03-28T08:15:39.402Z,4.95
2023-03-28T08:18:06.160Z,4.65
2023-03-28T08:20:33.493Z,5.45
2023-03-28T08:22:59.957Z,3.25
2023-03-28T08:25:26.466Z,3.83
2023-03-28T08:27:52.942Z,4.35
2023-03-28T08:30:19.460Z,3.67
2023-03-28T08:32:48.689Z,5.30
2023-03-28T08:35:15.730Z,5.72
2023-03-28T08:37:42.245Z,3.85
2023-03-28T08:40:14.889Z,5.80
2023-03-28T08:43:15.428Z,5.80
2023-03-28T08:45:55.656Z,5.50
2023-03-28T08:48:22.149Z,5.53
2023-03-28T08:50:51.226Z,3.00
2023-03-28T08:53:24.346Z,3.78
2023-03-28T08:55:53.770Z,3.35
2023-03-28T08:58:23.362Z,2.17
2023-03-28T09:00:52.101Z,4.50
2023-03-28T09:03:21.616Z,3.38
2023-03-28T09:06:29.487Z,2.03
2023-03-28T09:09:05.077Z,4.80
2023-03-28T09:11:54.274Z,3.67
2023-03-28T09:14:23.726Z,1.53
2023-03-28T09:17:27.829Z,3.72
2023-03-28T09:20:12.517Z,1.70
2023-03-28T09:22:56.082Z,3.47
2023-03-28T09:25:36.261Z,1.90
2023-03-28T09:28:14.823Z,5.05
2023-03-28T09:30:45.950Z,1.33
2023-03-28T09:33:18.594Z,3.85
2023-03-28T09:35:48.930Z,1.50
2023-03-28T09:38:26.415Z,2.40
2023-03-28T09:40:57.531Z,3.58
2023-03-28T09:43:47.415Z,2.83
2023-03-28T09:46:37.002Z,2.08
2023-03-28T09:49:03.680Z,4.75
2023-03-28T09:51:31.046Z,2.88
2023-03-28T09:53:57.598Z,2.53
2023-03-28T09:56:36.737Z,1.70
2023-03-28T09:59:05.075Z,4.97
2023-03-28T10:01:38.642Z,2.78
2023-03-28T10:04:14.432Z,1.60
2023-03-28T10:06:42.278Z,1.65
2023-03-28T10:09:18.196Z,2.17
2023-03-28T10:11:57.538Z,4.32
2023-03-28T10:14:42.183Z,2.03
2023-03-28T10:17:18.874Z,1.27
2023-03-28T10:19:47.433Z,1.70
2023-03-28T10:22:13.882Z,2.40
2023-03-28T10:24:41.182Z,1.42
2023-03-28T10:27:23.909Z,2.40
2023-03-28T10:29:53.482Z,4.32
2023-03-28T10:32:29.297Z,1.65
2023-03-28T10:35:22.040Z,2.17
2023-03-28T10:37:54.851Z,2.35
2023-03-28T10:40:21.333Z,2.35
2023-03-28T10:42:50.842Z,1.23
2023-03-28T10:45:40.578Z,3.17
2023-03-28T10:48:22.592Z,3.03
2023-03-28T10:50:52.857Z,2.88
2023-03-28T10:53:43.479Z,1.63
2023-03-28T10:56:29.489Z,2.70
2023-03-28T10:59:27.885Z,1.77
2023-03-28T11:02:50.000Z,1.27
2023-03-28T11:05:28.212Z,3.58
2023-03-28T11:08:00.107Z,1.20
2023-03-28T11:11:06.121Z,2.63
2023-03-28T11:13:57.766Z,2.17
2023-03-28T11:17:17.122Z,2.75
2023-03-28T11:22:28.154Z,2.83
2023-03-28T11:25:19.544Z,2.07
2023-03-28T11:28:06.270Z,1.70
2023-03-28T11:30:35.420Z,1.92
2023-03-28T11:33:16.705Z,3.55
2023-03-28T11:35:54.624Z,2.05
2023-03-28T11:38:56.629Z,3.10
2023-03-28T11:41:30.035Z,2.25
2023-03-28T11:44:08.451Z,1.90
2023-03-28T11:46:40.753Z,1.55
2023-03-28T11:49:22.592Z,2.53
2023-03-28T11:52:04.326Z,0.90
2023-03-28T11:54:37.547Z,1.92
2023-03-28T11:57:35.076Z,3.17
2023-03-28T12:00:42.534Z,1.85
2023-03-28T12:03:29.020Z,1.27
2023-03-28T12:06:05.544Z,1.95
2023-03-28T12:08:47.586Z,2.15
2023-03-28T12:11:36.847Z,2.10
2023-03-28T12:14:12.630Z,1.48
2023-03-28T12:16:46.779Z,2.28
2023-03-28T12:19:18.421Z,1.48
2023-03-28T12:22:00.740Z,3.58
2023-03-28T12:24:36.980Z,1.88
2023-03-28T12:27:14.625Z,3.03
2023-03-28T12:29:59.383Z,1.40
2023-03-28T12:32:39.450Z,3.78
2023-03-28T12:35:14.551Z,1.63
2023-03-28T12:37:46.739Z,1.75
2023-03-28T12:40:13.544Z,1.83
2023-03-28T12:42:43.311Z,1.77
2023-03-28T12:45:20.123Z,2.67
2023-03-28T12:47:51.616Z,2.83
2023-03-28T12:50:41.267Z,2.30
2023-03-28T12:53:11.678Z,2.55
2023-03-28T12:55:46.502Z,3.90
2023-03-28T12:58:33.435Z,4.03
2023-03-28T13:01:09.230Z,2.10
2023-03-28T13:04:02.739Z,1.55
2023-03-28T13:06:47.790Z,2.05
2023-03-28T13:09:41.728Z,2.63
2023-03-28T13:12:46.948Z,2.38
2023-03-28T13:15:13.406Z,1.63
2023-03-28T13:17:47.846Z,2.55
2023-03-28T13:20:17.584Z,2.72
2023-03-28T13:23:04.645Z,1.65
2023-03-28T13:25:35.588Z,2.00
2023-03-28T13:28:11.359Z,2.03
2023-03-28T13:30:41.394Z,1.90
2023-03-28T13:33:23.136Z,0.88
2023-03-28T13:35:58.911Z,2.22
2023-03-28T13:38:28.143Z,1.85
2023-03-28T13:41:09.533Z,2.03
2023-03-28T13:43:47.360Z,1.40
2023-03-28T13:46:18.785Z,1.65
2023-03-28T13:49:01.229Z,1.00
2023-03-28T13:51:32.757Z,2.38
2023-03-28T13:53:59.467Z,1.38
2023-03-28T13:56:30.661Z,1.08
2023-03-28T13:58:59.066Z,1.25
2023-03-28T14:01:33.399Z,2.10
2023-03-28T14:03:59.996Z,2.10
2023-03-28T14:06:29.645Z,3.38
2023-03-28T14:09:01.078Z,4.22
2023-03-28T14:11:37.573Z,2.50
2023-03-28T14:14:11.747Z,2.78
2023-03-28T14:16:39.548Z,2.50
2023-03-28T14:19:07.586Z,1.65
2023-03-28T14:21:34.784Z,2.65
2023-03-28T14:24:07.059Z,1.27
2023-03-28T14:26:37.114Z,2.50
2023-03-28T14:31:38.510Z,3.03
2023-03-28T14:34:25.437Z,2.42
2023-03-28T14:37:02.165Z,1.52
2023-03-28T14:39:31.372Z,2.35
2023-03-28T14:42:02.180Z,3.60
2023-03-28T14:44:30.277Z,1.10
2023-03-28T14:46:59.295Z,2.35
2023-03-28T14:49:27.128Z,2.15
2023-03-28T14:51:57.412Z,3.00
2023-03-28T14:54:28.639Z,2.85
2023-03-28T14:56:57.320Z,3.00
2023-03-28T14:59:32.305Z,2.38
2023-03-28T15:02:01.808Z,1.88
2023-03-28T15:04:30.167Z,1.20
2023-03-28T15:06:58.096Z,2.20
2023-03-28T15:09:28.993Z,2.38
2023-03-28T15:11:57.385Z,3.63
2023-03-28T15:14:30.828Z,2.28
2023-03-28T15:16:57.967Z,3.67
2023-03-28T15:19:35.477Z,3.85
2023-03-28T15:22:21.515Z,3.55
2023-03-28T15:24:48.181Z,3.00
2023-03-28T15:27:25.197Z,3.28
2023-03-28T15:29:51.854Z,1.15
2023-03-28T15:32:20.298Z,2.53
2023-03-28T15:34:55.185Z,4.38
2023-03-28T15:37:24.722Z,4.07
2023-03-28T15:39:52.659Z,2.20
2023-03-28T15:42:19.171Z,1.50
2023-03-28T15:45:11.936Z,3.15
2023-03-28T15:47:38.769Z,2.10
2023-03-28T15:50:08.174Z,1.52
2023-03-28T15:52:35.270Z,1.33
2023-03-28T15:55:03.248Z,5.07
2023-03-28T15:57:30.823Z,2.10
2023-03-28T15:59:58.705Z,1.98
2023-03-28T16:02:25.491Z,2.20
2023-03-28T16:05:06.942Z,1.50
2023-03-28T16:07:34.672Z,1.63
2023-03-28T16:10:01.242Z,4.55
2023-03-28T16:12:28.142Z,1.23
2023-03-28T16:14:55.342Z,2.13
2023-03-28T16:17:26.467Z,4.20
2023-03-28T16:19:53.071Z,2.67
2023-03-28T16:22:21.084Z,2.05
2023-03-28T16:24:49.591Z,3.15
2023-03-28T16:27:16.732Z,1.48
2023-03-28T16:29:43.712Z,2.00
2023-03-28T16:32:12.758Z,1.55
2023-03-28T16:34:40.184Z,2.17
2023-03-28T16:37:08.931Z,3.35
2023-03-28T16:39:37.501Z,1.98
2023-03-28T16:42:05.393Z,2.47
2023-03-28T16:44:32.497Z,2.22
2023-03-28T16:47:00.178Z,3.28
2023-03-28T16:49:26.754Z,4.00
2023-03-28T16:51:54.816Z,2.15
2023-03-28T16:54:24.626Z,2.60
2023-03-28T16:56:51.224Z,2.05
2023-03-28T16:59:17.833Z,4.28
2023-03-28T17:01:46.348Z,2.25
2023-03-28T17:04:13.282Z,2.75
2023-03-28T17:06:39.930Z,7.30
2023-03-28T17:09:06.753Z,3.33
2023-03-28T17:11:33.618Z,4.45
2023-03-28T17:14:00.621Z,2.13
2023-03-28T17:16:27.469Z,2.10
2023-03-28T17:18:54.068Z,3.15
2023-03-28T17:21:20.598Z,3.13
2023-03-28T17:23:48.700Z,10.23
2023-03-28T17:26:16.264Z,9.75
2023-03-28T17:28:43.522Z,14.10
2023-03-28T17:31:17.055Z,14.45
2023-03-28T17:33:44.872Z,11.57
2023-03-28T17:36:26.294Z,9.20
2023-03-28T17:38:57.705Z,3.30
2023-03-28T17:41:25.550Z,2.47
2023-03-28T17:43:53.110Z,2.15
2023-03-28T17:46:19.833Z,3.58
2023-03-28T17:48:46.571Z,4.55
2023-03-28T17:51:13.795Z,4.70
2023-03-28T17:53:41.733Z,1.92
2023-03-28T17:56:09.771Z,1.80
2023-03-28T17:58:37.615Z,1.35
2023-03-28T18:01:08.457Z,3.17
2023-03-28T18:03:35.304Z,2.22
2023-03-28T18:06:02.359Z,3.42
2023-03-28T18:08:30.310Z,5.95
2023-03-28T18:11:10.854Z,6.00
2023-03-28T18:13:38.347Z,8.23
2023-03-28T18:16:10.467Z,3.33
2023-03-28T18:18:37.597Z,4.90
2023-03-28T18:21:04.334Z,3.70
2023-03-28T18:23:31.882Z,2.72
2023-03-28T18:25:58.622Z,1.38
2023-03-28T18:28:25.532Z,1.90
2023-03-28T18:30:53.122Z,4.72
2023-03-28T18:33:22.068Z,3.92
2023-03-28T18:35:49.234Z,5.22
2023-03-28T18:38:15.846Z,7.95
2023-03-28T18:40:42.955Z,7.47
2023-03-28T18:43:09.858Z,5.40
2023-03-28T18:45:36.810Z,5.03
2023-03-28T18:48:04.050Z,3.95
2023-03-28T18:50:31.339Z,3.92
2023-03-28T18:52:58.099Z,9.45
2023-03-28T18:55:24.866Z,6.82
2023-03-28T18:57:52.740Z,3.22
2023-03-28T19:00:19.918Z,2.92
2023-03-28T19:02:47.926Z,4.55
2023-03-28T19:05:16.585Z,3.03
2023-03-28T19:07:44.718Z,5.57
2023-03-28T19:10:13.382Z,7.63
2023-03-28T19:12:41.098Z,4.05
2023-03-28T19:15:08.821Z,5.57
2023-03-28T19:17:36.473Z,4.35
2023-03-28T19:20:07.796Z,4.47
2023-03-28T19:22:35.172Z,4.45
2023-03-28T19:25:01.825Z,2.80
